sensor_id;sensor_type;location;lat;lon;timestamp;temperature;humidity
12720;DHT22;6424;48.520;11.228;2023-04-25T00:00:30;6.50;99.90
12720;DHT22;6424;48.520;11.228;2023-04-25T00:03:11;6.50;99.90
12720;DHT22;6424;48.520;11.228;2023-04-25T00:05:37;6.50;99.90
12720;DHT22;6424;48.520;11.228;2023-04-25T00:08:18;6.40;99.90
12720;DHT22;6424;48.520;11.228;2023-04-25T00:11:01;6.30;99.90
12720;DHT22;6424;48.520;11.228;2023-04-25T00:13:41;6.30;99.90
12720;DHT22;6424;48.520;11.228;2023-04-25T00:16:23;6.30;99.90
12720;DHT22;6424;48.520;11.228;2023-04-25T00:19:04;6.30;99.90
12720;DHT22;6424;48.520;11.228;2023-04-25T00:21:45;6.30;99.90
12720;DHT22;6424;48.520;11.228;2023-04-25T00:24:26;6.30;99.90
12720;DHT22;6424;48.520;11.228;2023-04-25T00:27:07;6.20;99.90
12720;DHT22;6424;48.520;11.228;2023-04-25T00:29:48;6.20;99.90
12720;DHT22;6424;48.520;11.228;2023-04-25T00:32:28;6.20;99.90
12720;DHT22;6424;48.520;11.228;2023-04-25T00:35:09;6.10;99.90
12720;DHT22;6424;48.520;11.228;2023-04-25T00:37:50;6.00;99.90
12720;DHT22;6424;48.520;11.228;2023-04-25T00:40:31;6.00;99.90
12720;DHT22;6424;48.520;11.228;2023-04-25T00:43:12;6.00;99.90
12720;DHT22;6424;48.520;11.228;2023-04-25T00:45:38;5.90;99.90
12720;DHT22;6424;48.520;11.228;2023-04-25T00:48:23;5.90;99.90
12720;DHT22;6424;48.520;11.228;2023-04-25T00:53:34;5.90;99.90
12720;DHT22;6424;48.520;11.228;2023-04-25T00:56:16;6.00;99.90
12720;DHT22;6424;48.520;11.228;2023-04-25T00:58:56;6.00;99.90
12720;DHT22;6424;48.520;11.228;2023-04-25T01:01:38;6.10;99.90
12720;DHT22;6424;48.520;11.228;2023-04-25T01:04:04;6.10;99.90
12720;DHT22;6424;48.520;11.228;2023-04-25T01:06:45;6.20;99.90
12720;DHT22;6424;48.520;11.228;2023-04-25T01:09:26;6.30;99.90
12720;DHT22;6424;48.520;11.228;2023-04-25T01:12:07;6.40;99.90
12720;DHT22;6424;48.520;11.228;2023-04-25T01:14:48;6.40;99.90
12720;DHT22;6424;48.520;11.228;2023-04-25T01:17:29;6.40;99.90
12720;DHT22;6424;48.520;11.228;2023-04-25T01:19:55;6.40;99.90
12720;DHT22;6424;48.520;11.228;2023-04-25T01:22:36;6.50;99.90
12720;DHT22;6424;48.520;11.228;2023-04-25T01:25:17;6.50;99.90
12720;DHT22;6424;48.520;11.228;2023-04-25T01:27:58;6.50;99.90
12720;DHT22;6424;48.520;11.228;2023-04-25T01:30:40;6.60;99.90
12720;DHT22;6424;48.520;11.228;2023-04-25T01:33:22;6.60;99.90
12720;DHT22;6424;48.520;11.228;2023-04-25T01:36:03;6.60;99.90
12720;DHT22;6424;48.520;11.228;2023-04-25T01:38:29;6.60;99.90
12720;DHT22;6424;48.520;11.228;2023-04-25T01:41:10;6.60;99.90
12720;DHT22;6424;48.520;11.228;2023-04-25T01:43:51;6.60;99.90
12720;DHT22;6424;48.520;11.228;2023-04-25T01:46:33;6.60;99.90
12720;DHT22;6424;48.520;11.228;2023-04-25T01:49:14;6.60;99.90
12720;DHT22;6424;48.520;11.228;2023-04-25T01:51:55;6.60;99.90
12720;DHT22;6424;48.520;11.228;2023-04-25T01:54:36;6.60;99.90
12720;DHT22;6424;48.520;11.228;2023-04-25T01:57:16;6.60;99.90
12720;DHT22;6424;48.520;11.228;2023-04-25T01:59:59;6.60;99.90
12720;DHT22;6424;48.520;11.228;2023-04-25T02:02:41;6.50;99.90
12720;DHT22;6424;48.520;11.228;2023-04-25T02:05:21;6.50;99.90
12720;DHT22;6424;48.520;11.228;2023-04-25T02:08:04;6.50;99.90
12720;DHT22;6424;48.520;11.228;2023-04-25T02:10:45;6.40;99.90
12720;DHT22;6424;48.520;11.228;2023-04-25T02:13:11;6.40;99.90
12720;DHT22;6424;48.520;11.228;2023-04-25T02:15:51;6.40;99.90
12720;DHT22;6424;48.520;11.228;2023-04-25T02:18:32;6.40;99.90
12720;DHT22;6424;48.520;11.228;2023-04-25T02:21:13;6.40;99.90
12720;DHT22;6424;48.520;11.228;2023-04-25T02:23:54;6.40;99.90
12720;DHT22;6424;48.520;11.228;2023-04-25T02:26:35;6.30;99.90
12720;DHT22;6424;48.520;11.228;2023-04-25T02:29:16;6.30;99.90
12720;DHT22;6424;48.520;11.228;2023-04-25T02:31:56;6.30;99.90
12720;DHT22;6424;48.520;11.228;2023-04-25T02:34:37;6.20;99.90
12720;DHT22;6424;48.520;11.228;2023-04-25T02:37:18;6.20;99.90
12720;DHT22;6424;48.520;11.228;2023-04-25T02:39:59;6.30;99.90
12720;DHT22;6424;48.520;11.228;2023-04-25T02:42:40;6.30;99.90
12720;DHT22;6424;48.520;11.228;2023-04-25T02:45:21;6.30;99.90
12720;DHT22;6424;48.520;11.228;2023-04-25T02:48:03;6.40;99.90
12720;DHT22;6424;48.520;11.228;2023-04-25T02:50:43;6.30;99.90
12720;DHT22;6424;48.520;11.228;2023-04-25T02:53:25;6.30;99.90
12720;DHT22;6424;48.520;11.228;2023-04-25T02:56:06;6.30;99.90
12720;DHT22;6424;48.520;11.228;2023-04-25T02:58:47;6.30;99.90
12720;DHT22;6424;48.520;11.228;2023-04-25T03:01:27;6.30;99.90
12720;DHT22;6424;48.520;11.228;2023-04-25T03:04:08;6.30;99.90
12720;DHT22;6424;48.520;11.228;2023-04-25T03:06:50;6.30;99.90
12720;DHT22;6424;48.520;11.228;2023-04-25T03:09:31;6.30;99.90
12720;DHT22;6424;48.520;11.228;2023-04-25T03:12:11;6.30;99.90
12720;DHT22;6424;48.520;11.228;2023-04-25T03:14:52;6.30;99.90
12720;DHT22;6424;48.520;11.228;2023-04-25T03:17:33;6.30;99.90
12720;DHT22;6424;48.520;11.228;2023-04-25T03:20:14;6.30;99.90
12720;DHT22;6424;48.520;11.228;2023-04-25T03:22:55;6.30;99.90
12720;DHT22;6424;48.520;11.228;2023-04-25T03:25:36;6.30;99.90
12720;DHT22;6424;48.520;11.228;2023-04-25T03:28:16;6.40;99.90
12720;DHT22;6424;48.520;11.228;2023-04-25T03:30:57;6.40;99.90
12720;DHT22;6424;48.520;11.228;2023-04-25T03:33:38;6.40;99.90
12720;DHT22;6424;48.520;11.228;2023-04-25T03:36:19;6.40;99.90
12720;DHT22;6424;48.520;11.228;2023-04-25T03:38:59;6.50;99.90
12720;DHT22;6424;48.520;11.228;2023-04-25T03:41:40;6.50;99.90
12720;DHT22;6424;48.520;11.228;2023-04-25T03:44:06;6.40;99.90
12720;DHT22;6424;48.520;11.228;2023-04-25T03:46:47;6.50;99.90
12720;DHT22;6424;48.520;11.228;2023-04-25T03:49:27;6.50;99.90
12720;DHT22;6424;48.520;11.228;2023-04-25T03:52:08;6.50;99.90
12720;DHT22;6424;48.520;11.228;2023-04-25T03:54:49;6.50;99.90
12720;DHT22;6424;48.520;11.228;2023-04-25T03:57:30;6.40;99.90
12720;DHT22;6424;48.520;11.228;2023-04-25T04:00:11;6.40;99.90
12720;DHT22;6424;48.520;11.228;2023-04-25T04:02:52;6.40;99.90
12720;DHT22;6424;48.520;11.228;2023-04-25T04:05:33;6.40;99.90
12720;DHT22;6424;48.520;11.228;2023-04-25T04:08:14;6.40;99.90
12720;DHT22;6424;48.520;11.228;2023-04-25T04:10:54;6.40;99.90
12720;DHT22;6424;48.520;11.228;2023-04-25T04:13:35;6.40;99.90
12720;DHT22;6424;48.520;11.228;2023-04-25T04:16:16;6.30;99.90
12720;DHT22;6424;48.520;11.228;2023-04-25T04:18:57;6.30;99.90
12720;DHT22;6424;48.520;11.228;2023-04-25T04:21:38;6.30;99.90
12720;DHT22;6424;48.520;11.228;2023-04-25T04:24:18;6.20;99.90
12720;DHT22;6424;48.520;11.228;2023-04-25T04:26:59;6.20;99.90
12720;DHT22;6424;48.520;11.228;2023-04-25T04:29:40;6.20;99.90
12720;DHT22;6424;48.520;11.228;2023-04-25T04:32:21;6.20;99.90
12720;DHT22;6424;48.520;11.228;2023-04-25T04:35:04;6.20;99.90
12720;DHT22;6424;48.520;11.228;2023-04-25T04:37:47;6.20;99.90
12720;DHT22;6424;48.520;11.228;2023-04-25T04:40:28;6.30;99.90
12720;DHT22;6424;48.520;11.228;2023-04-25T04:43:11;6.30;99.90
12720;DHT22;6424;48.520;11.228;2023-04-25T04:45:52;6.40;99.90
12720;DHT22;6424;48.520;11.228;2023-04-25T04:48:36;6.40;99.90
12720;DHT22;6424;48.520;11.228;2023-04-25T04:51:17;6.40;99.90
12720;DHT22;6424;48.520;11.228;2023-04-25T04:53:59;6.50;99.90
12720;DHT22;6424;48.520;11.228;2023-04-25T04:56:42;6.50;99.90
12720;DHT22;6424;48.520;11.228;2023-04-25T04:59:08;6.50;99.90
12720;DHT22;6424;48.520;11.228;2023-04-25T05:01:49;6.60;99.90
12720;DHT22;6424;48.520;11.228;2023-04-25T05:04:30;6.60;99.90
12720;DHT22;6424;48.520;11.228;2023-04-25T05:06:56;6.60;99.90
12720;DHT22;6424;48.520;11.228;2023-04-25T05:09:37;6.60;99.90
12720;DHT22;6424;48.520;11.228;2023-04-25T05:12:17;6.60;99.90
12720;DHT22;6424;48.520;11.228;2023-04-25T05:14:58;6.70;99.90
12720;DHT22;6424;48.520;11.228;2023-04-25T05:17:39;6.70;99.90
12720;DHT22;6424;48.520;11.228;2023-04-25T05:20:20;6.70;99.90
12720;DHT22;6424;48.520;11.228;2023-04-25T05:23:01;6.70;99.90
12720;DHT22;6424;48.520;11.228;2023-04-25T05:25:41;6.80;99.90
12720;DHT22;6424;48.520;11.228;2023-04-25T05:28:22;6.80;99.90
12720;DHT22;6424;48.520;11.228;2023-04-25T05:31:03;6.90;99.90
12720;DHT22;6424;48.520;11.228;2023-04-25T05:33:44;6.90;99.90
12720;DHT22;6424;48.520;11.228;2023-04-25T05:36:25;7.00;99.90
12720;DHT22;6424;48.520;11.228;2023-04-25T05:39:06;7.00;99.90
12720;DHT22;6424;48.520;11.228;2023-04-25T05:41:47;7.10;99.90
12720;DHT22;6424;48.520;11.228;2023-04-25T05:44:28;7.10;99.90
12720;DHT22;6424;48.520;11.228;2023-04-25T05:47:09;7.10;99.90
12720;DHT22;6424;48.520;11.228;2023-04-25T05:49:50;7.20;99.90
12720;DHT22;6424;48.520;11.228;2023-04-25T05:52:30;7.20;99.90
12720;DHT22;6424;48.520;11.228;2023-04-25T05:55:11;7.20;99.90
12720;DHT22;6424;48.520;11.228;2023-04-25T05:57:54;7.30;99.90
12720;DHT22;6424;48.520;11.228;2023-04-25T06:00:35;7.30;99.90
12720;DHT22;6424;48.520;11.228;2023-04-25T06:03:16;7.30;99.90
12720;DHT22;6424;48.520;11.228;2023-04-25T06:05:57;7.30;99.90
12720;DHT22;6424;48.520;11.228;2023-04-25T06:08:22;7.40;99.90
12720;DHT22;6424;48.520;11.228;2023-04-25T06:11:03;7.40;99.90
12720;DHT22;6424;48.520;11.228;2023-04-25T06:13:46;7.40;99.90
12720;DHT22;6424;48.520;11.228;2023-04-25T06:16:11;7.40;99.90
12720;DHT22;6424;48.520;11.228;2023-04-25T06:18:52;7.50;99.90
12720;DHT22;6424;48.520;11.228;2023-04-25T06:21:33;7.50;99.90
12720;DHT22;6424;48.520;11.228;2023-04-25T06:24:14;7.60;99.90
12720;DHT22;6424;48.520;11.228;2023-04-25T06:26:40;7.60;99.90
12720;DHT22;6424;48.520;11.228;2023-04-25T06:29:20;7.70;99.90
12720;DHT22;6424;48.520;11.228;2023-04-25T06:32:01;8.00;99.90
12720;DHT22;6424;48.520;11.228;2023-04-25T06:34:42;8.50;99.90
12720;DHT22;6424;48.520;11.228;2023-04-25T06:37:08;9.20;99.90
12720;DHT22;6424;48.520;11.228;2023-04-25T06:39:49;9.80;99.90
12720;DHT22;6424;48.520;11.228;2023-04-25T06:42:14;10.50;99.90
12720;DHT22;6424;48.520;11.228;2023-04-25T06:44:55;10.90;99.90
12720;DHT22;6424;48.520;11.228;2023-04-25T06:47:36;11.30;99.90
12720;DHT22;6424;48.520;11.228;2023-04-25T06:50:17;11.50;99.90
12720;DHT22;6424;48.520;11.228;2023-04-25T06:52:57;11.50;99.90
12720;DHT22;6424;48.520;11.228;2023-04-25T06:55:38;11.80;99.90
12720;DHT22;6424;48.520;11.228;2023-04-25T06:58:19;12.00;99.90
12720;DHT22;6424;48.520;11.228;2023-04-25T07:01:00;12.00;99.90
12720;DHT22;6424;48.520;11.228;2023-04-25T07:03:41;11.90;99.90
12720;DHT22;6424;48.520;11.228;2023-04-25T07:06:21;11.90;99.90
12720;DHT22;6424;48.520;11.228;2023-04-25T07:09:02;12.20;99.90
12720;DHT22;6424;48.520;11.228;2023-04-25T07:11:43;12.40;99.90
12720;DHT22;6424;48.520;11.228;2023-04-25T07:14:24;12.60;99.90
12720;DHT22;6424;48.520;11.228;2023-04-25T07:17:05;12.60;99.90
12720;DHT22;6424;48.520;11.228;2023-04-25T07:19:47;12.60;99.90
12720;DHT22;6424;48.520;11.228;2023-04-25T07:22:27;12.80;99.90
12720;DHT22;6424;48.520;11.228;2023-04-25T07:25:08;12.70;99.90
12720;DHT22;6424;48.520;11.228;2023-04-25T07:27:49;12.70;99.90
12720;DHT22;6424;48.520;11.228;2023-04-25T07:30:30;12.80;99.90
12720;DHT22;6424;48.520;11.228;2023-04-25T07:32:56;12.50;99.90
12720;DHT22;6424;48.520;11.228;2023-04-25T07:35:37;12.40;99.90
12720;DHT22;6424;48.520;11.228;2023-04-25T07:38:17;12.50;99.90
12720;DHT22;6424;48.520;11.228;2023-04-25T07:40:43;12.80;99.90
12720;DHT22;6424;48.520;11.228;2023-04-25T07:43:24;13.00;99.90
12720;DHT22;6424;48.520;11.228;2023-04-25T07:46:05;13.10;99.90
12720;DHT22;6424;48.520;11.228;2023-04-25T07:48:46;13.00;99.90
12720;DHT22;6424;48.520;11.228;2023-04-25T07:51:27;13.10;99.90
12720;DHT22;6424;48.520;11.228;2023-04-25T07:54:08;13.10;99.90
12720;DHT22;6424;48.520;11.228;2023-04-25T07:56:49;13.30;99.90
12720;DHT22;6424;48.520;11.228;2023-04-25T07:59:30;13.40;99.90
12720;DHT22;6424;48.520;11.228;2023-04-25T08:02:10;13.00;99.90
12720;DHT22;6424;48.520;11.228;2023-04-25T08:04:51;12.50;99.90
12720;DHT22;6424;48.520;11.228;2023-04-25T08:07:32;11.90;99.90
12720;DHT22;6424;48.520;11.228;2023-04-25T08:10:13;11.40;99.90
12720;DHT22;6424;48.520;11.228;2023-04-25T08:12:54;11.20;99.90
12720;DHT22;6424;48.520;11.228;2023-04-25T08:15:34;11.30;99.90
12720;DHT22;6424;48.520;11.228;2023-04-25T08:18:15;11.70;99.90
12720;DHT22;6424;48.520;11.228;2023-04-25T08:20:56;12.20;99.90
12720;DHT22;6424;48.520;11.228;2023-04-25T08:23:37;12.60;99.90
12720;DHT22;6424;48.520;11.228;2023-04-25T08:26:18;12.90;99.90
12720;DHT22;6424;48.520;11.228;2023-04-25T08:28:59;13.20;99.90
12720;DHT22;6424;48.520;11.228;2023-04-25T08:31:40;13.30;99.90
12720;DHT22;6424;48.520;11.228;2023-04-25T08:34:21;13.10;99.90
12720;DHT22;6424;48.520;11.228;2023-04-25T08:37:02;12.80;99.90
12720;DHT22;6424;48.520;11.228;2023-04-25T08:39:44;12.50;99.90
12720;DHT22;6424;48.520;11.228;2023-04-25T08:42:27;12.30;99.90
12720;DHT22;6424;48.520;11.228;2023-04-25T08:45:09;12.50;99.90
12720;DHT22;6424;48.520;11.228;2023-04-25T08:47:52;12.60;99.90
12720;DHT22;6424;48.520;11.228;2023-04-25T08:50:34;12.70;99.90
12720;DHT22;6424;48.520;11.228;2023-04-25T08:53:16;12.80;99.90
12720;DHT22;6424;48.520;11.228;2023-04-25T08:56:01;13.10;99.90
12720;DHT22;6424;48.520;11.228;2023-04-25T08:58:42;13.50;99.90
12720;DHT22;6424;48.520;11.228;2023-04-25T09:01:24;13.80;99.90
12720;DHT22;6424;48.520;11.228;2023-04-25T09:04:05;14.10;99.90
12720;DHT22;6424;48.520;11.228;2023-04-25T09:06:47;14.20;99.90
12720;DHT22;6424;48.520;11.228;2023-04-25T09:09:28;14.00;99.90
12720;DHT22;6424;48.520;11.228;2023-04-25T09:12:10;13.60;99.90
12720;DHT22;6424;48.520;11.228;2023-04-25T09:17:29;12.60;99.90
12720;DHT22;6424;48.520;11.228;2023-04-25T09:20:12;12.30;99.90
12720;DHT22;6424;48.520;11.228;2023-04-25T09:23:04;12.10;99.90
12720;DHT22;6424;48.520;11.228;2023-04-25T09:25:47;12.40;99.90
12720;DHT22;6424;48.520;11.228;2023-04-25T09:28:28;12.90;99.90
12720;DHT22;6424;48.520;11.228;2023-04-25T09:31:12;13.20;99.90
12720;DHT22;6424;48.520;11.228;2023-04-25T09:33:46;13.20;99.90
12720;DHT22;6424;48.520;11.228;2023-04-25T09:36:27;13.10;99.90
12720;DHT22;6424;48.520;11.228;2023-04-25T09:39:12;12.80;99.90
12720;DHT22;6424;48.520;11.228;2023-04-25T09:41:56;12.50;99.90
12720;DHT22;6424;48.520;11.228;2023-04-25T09:44:45;12.30;99.90
12720;DHT22;6424;48.520;11.228;2023-04-25T09:47:26;12.30;99.90
12720;DHT22;6424;48.520;11.228;2023-04-25T09:50:14;12.50;99.90
12720;DHT22;6424;48.520;11.228;2023-04-25T09:53:03;12.60;99.90
12720;DHT22;6424;48.520;11.228;2023-04-25T09:55:46;12.50;99.90
12720;DHT22;6424;48.520;11.228;2023-04-25T09:58:29;12.50;99.90
12720;DHT22;6424;48.520;11.228;2023-04-25T10:01:00;12.20;99.90
12720;DHT22;6424;48.520;11.228;2023-04-25T10:03:41;12.00;99.90
12720;DHT22;6424;48.520;11.228;2023-04-25T10:06:24;11.50;99.90
12720;DHT22;6424;48.520;11.228;2023-04-25T10:09:07;10.90;99.90
12720;DHT22;6424;48.520;11.228;2023-04-25T10:11:34;10.30;99.90
12720;DHT22;6424;48.520;11.228;2023-04-25T10:14:16;9.80;99.90
12720;DHT22;6424;48.520;11.228;2023-04-25T10:17:00;9.60;99.90
12720;DHT22;6424;48.520;11.228;2023-04-25T10:19:41;9.50;99.90
12720;DHT22;6424;48.520;11.228;2023-04-25T10:24:51;9.80;99.90
12720;DHT22;6424;48.520;11.228;2023-04-25T10:27:32;9.90;99.90
12720;DHT22;6424;48.520;11.228;2023-04-25T10:30:14;10.00;99.90
12720;DHT22;6424;48.520;11.228;2023-04-25T10:32:56;10.20;99.90
12720;DHT22;6424;48.520;11.228;2023-04-25T10:35:37;10.20;99.90
12720;DHT22;6424;48.520;11.228;2023-04-25T10:38:11;10.20;99.90
12720;DHT22;6424;48.520;11.228;2023-04-25T10:41:08;10.20;99.90
12720;DHT22;6424;48.520;11.228;2023-04-25T10:43:59;10.10;99.90
12720;DHT22;6424;48.520;11.228;2023-04-25T10:46:41;10.00;99.90
12720;DHT22;6424;48.520;11.228;2023-04-25T10:49:30;9.90;99.90
12720;DHT22;6424;48.520;11.228;2023-04-25T10:52:12;9.80;99.90
12720;DHT22;6424;48.520;11.228;2023-04-25T10:54:57;9.80;99.90
12720;DHT22;6424;48.520;11.228;2023-04-25T10:57:44;9.80;99.90
12720;DHT22;6424;48.520;11.228;2023-04-25T11:00:27;9.70;99.90
12720;DHT22;6424;48.520;11.228;2023-04-25T11:03:10;9.70;99.90
12720;DHT22;6424;48.520;11.228;2023-04-25T11:05:52;9.80;99.90
12720;DHT22;6424;48.520;11.228;2023-04-25T11:08:51;9.80;99.90
12720;DHT22;6424;48.520;11.228;2023-04-25T11:11:32;9.90;99.90
12720;DHT22;6424;48.520;11.228;2023-04-25T11:14:17;9.90;99.90
12720;DHT22;6424;48.520;11.228;2023-04-25T11:16:58;10.00;99.90
12720;DHT22;6424;48.520;11.228;2023-04-25T11:19:39;10.00;99.90
12720;DHT22;6424;48.520;11.228;2023-04-25T11:22:05;9.60;99.90
12720;DHT22;6424;48.520;11.228;2023-04-25T11:24:47;9.20;99.90
12720;DHT22;6424;48.520;11.228;2023-04-25T11:27:28;8.90;99.90
12720;DHT22;6424;48.520;11.228;2023-04-25T11:30:14;8.70;99.90
12720;DHT22;6424;48.520;11.228;2023-04-25T11:32:56;8.50;99.90
12720;DHT22;6424;48.520;11.228;2023-04-25T11:35:36;8.30;99.90
12720;DHT22;6424;48.520;11.228;2023-04-25T11:38:20;8.20;99.90
12720;DHT22;6424;48.520;11.228;2023-04-25T11:41:02;8.00;99.90
12720;DHT22;6424;48.520;11.228;2023-04-25T11:43:43;7.90;99.90
12720;DHT22;6424;48.520;11.228;2023-04-25T11:46:24;7.80;99.90
12720;DHT22;6424;48.520;11.228;2023-04-25T11:48:51;7.80;99.90
12720;DHT22;6424;48.520;11.228;2023-04-25T11:51:41;7.70;99.90
12720;DHT22;6424;48.520;11.228;2023-04-25T11:54:23;7.60;99.90
12720;DHT22;6424;48.520;11.228;2023-04-25T11:57:04;7.60;99.90
12720;DHT22;6424;48.520;11.228;2023-04-25T11:59:45;7.60;99.90
12720;DHT22;6424;48.520;11.228;2023-04-25T12:02:26;7.60;99.90
12720;DHT22;6424;48.520;11.228;2023-04-25T12:05:08;7.70;99.90
12720;DHT22;6424;48.520;11.228;2023-04-25T12:07:49;7.80;99.90
12720;DHT22;6424;48.520;11.228;2023-04-25T12:10:30;8.00;99.90
12720;DHT22;6424;48.520;11.228;2023-04-25T12:13:21;8.10;99.90
12720;DHT22;6424;48.520;11.228;2023-04-25T12:16:02;8.20;99.90
12720;DHT22;6424;48.520;11.228;2023-04-25T12:18:43;8.20;99.90
12720;DHT22;6424;48.520;11.228;2023-04-25T12:21:28;8.20;99.90
12720;DHT22;6424;48.520;11.228;2023-04-25T12:27:05;8.30;99.90
12720;DHT22;6424;48.520;11.228;2023-04-25T12:29:56;8.30;99.90
12720;DHT22;6424;48.520;11.228;2023-04-25T12:32:37;8.30;99.90
12720;DHT22;6424;48.520;11.228;2023-04-25T12:35:18;8.30;99.90
12720;DHT22;6424;48.520;11.228;2023-04-25T12:37:59;8.30;99.90
12720;DHT22;6424;48.520;11.228;2023-04-25T12:40:39;8.20;99.90
12720;DHT22;6424;48.520;11.228;2023-04-25T12:43:21;8.10;99.90
12720;DHT22;6424;48.520;11.228;2023-04-25T12:46:02;8.10;99.90
12720;DHT22;6424;48.520;11.228;2023-04-25T12:48:43;8.00;99.90
12720;DHT22;6424;48.520;11.228;2023-04-25T12:51:09;7.80;99.90
12720;DHT22;6424;48.520;11.228;2023-04-25T12:53:50;7.70;99.90
12720;DHT22;6424;48.520;11.228;2023-04-25T12:56:31;7.50;99.90
12720;DHT22;6424;48.520;11.228;2023-04-25T12:58:57;7.40;99.90
12720;DHT22;6424;48.520;11.228;2023-04-25T13:01:39;7.40;99.90
12720;DHT22;6424;48.520;11.228;2023-04-25T13:04:20;7.50;99.90
12720;DHT22;6424;48.520;11.228;2023-04-25T13:07:01;7.60;99.90
12720;DHT22;6424;48.520;11.228;2023-04-25T13:09:42;7.70;99.90
12720;DHT22;6424;48.520;11.228;2023-04-25T13:12:23;7.90;99.90
12720;DHT22;6424;48.520;11.228;2023-04-25T13:15:04;8.10;99.90
12720;DHT22;6424;48.520;11.228;2023-04-25T13:17:46;8.20;99.90
12720;DHT22;6424;48.520;11.228;2023-04-25T13:20:27;8.40;99.90
12720;DHT22;6424;48.520;11.228;2023-04-25T13:23:07;8.50;99.90
12720;DHT22;6424;48.520;11.228;2023-04-25T13:25:48;8.50;99.90
12720;DHT22;6424;48.520;11.228;2023-04-25T13:28:14;8.40;99.90
12720;DHT22;6424;48.520;11.228;2023-04-25T13:30:55;8.30;99.90
12720;DHT22;6424;48.520;11.228;2023-04-25T13:33:36;8.20;99.90
12720;DHT22;6424;48.520;11.228;2023-04-25T13:36:17;8.10;99.90
12720;DHT22;6424;48.520;11.228;2023-04-25T13:38:58;8.10;99.90
12720;DHT22;6424;48.520;11.228;2023-04-25T13:41:38;8.00;99.90
12720;DHT22;6424;48.520;11.228;2023-04-25T13:44:19;8.00;99.90
12720;DHT22;6424;48.520;11.228;2023-04-25T13:47:00;8.10;99.90
12720;DHT22;6424;48.520;11.228;2023-04-25T13:49:41;8.20;99.90
12720;DHT22;6424;48.520;11.228;2023-04-25T13:52:07;8.40;99.90
12720;DHT22;6424;48.520;11.228;2023-04-25T13:54:48;8.50;99.90
12720;DHT22;6424;48.520;11.228;2023-04-25T13:57:14;8.70;99.90
12720;DHT22;6424;48.520;11.228;2023-04-25T13:59:54;8.80;99.90
12720;DHT22;6424;48.520;11.228;2023-04-25T14:02:36;8.90;99.90
12720;DHT22;6424;48.520;11.228;2023-04-25T14:05:16;9.00;99.90
12720;DHT22;6424;48.520;11.228;2023-04-25T14:07:58;9.10;99.90
12720;DHT22;6424;48.520;11.228;2023-04-25T14:10:39;9.10;99.90
12720;DHT22;6424;48.520;11.228;2023-04-25T14:13:20;9.10;99.90
12720;DHT22;6424;48.520;11.228;2023-04-25T14:16:01;8.90;99.90
12720;DHT22;6424;48.520;11.228;2023-04-25T14:18:41;8.70;99.90
12720;DHT22;6424;48.520;11.228;2023-04-25T14:21:22;8.50;99.90
12720;DHT22;6424;48.520;11.228;2023-04-25T14:24:03;8.30;99.90
12720;DHT22;6424;48.520;11.228;2023-04-25T14:26:45;8.20;99.90
12720;DHT22;6424;48.520;11.228;2023-04-25T14:29:26;8.00;99.90
12720;DHT22;6424;48.520;11.228;2023-04-25T14:32:07;7.90;99.90
12720;DHT22;6424;48.520;11.228;2023-04-25T14:34:47;7.80;99.90
12720;DHT22;6424;48.520;11.228;2023-04-25T14:37:28;7.70;99.90
12720;DHT22;6424;48.520;11.228;2023-04-25T14:40:09;7.60;99.90
12720;DHT22;6424;48.520;11.228;2023-04-25T14:42:51;7.50;99.90
12720;DHT22;6424;48.520;11.228;2023-04-25T14:45:33;7.50;99.90
12720;DHT22;6424;48.520;11.228;2023-04-25T14:48:14;7.50;99.90
12720;DHT22;6424;48.520;11.228;2023-04-25T14:50:55;7.50;99.90
12720;DHT22;6424;48.520;11.228;2023-04-25T14:53:40;7.50;99.90
12720;DHT22;6424;48.520;11.228;2023-04-25T14:56:21;7.50;99.90
12720;DHT22;6424;48.520;11.228;2023-04-25T14:59:02;7.70;99.90
12720;DHT22;6424;48.520;11.228;2023-04-25T15:01:43;7.80;99.90
12720;DHT22;6424;48.520;11.228;2023-04-25T15:04:24;7.80;99.90
12720;DHT22;6424;48.520;11.228;2023-04-25T15:07:05;7.90;99.90
12720;DHT22;6424;48.520;11.228;2023-04-25T15:09:47;7.90;99.90
12720;DHT22;6424;48.520;11.228;2023-04-25T15:12:28;7.90;99.90
12720;DHT22;6424;48.520;11.228;2023-04-25T15:15:10;8.00;99.90
12720;DHT22;6424;48.520;11.228;2023-04-25T15:17:52;8.20;99.90
12720;DHT22;6424;48.520;11.228;2023-04-25T15:20:35;8.30;99.90
12720;DHT22;6424;48.520;11.228;2023-04-25T15:23:17;8.40;99.90
12720;DHT22;6424;48.520;11.228;2023-04-25T15:25:44;8.50;99.90
12720;DHT22;6424;48.520;11.228;2023-04-25T15:28:24;8.60;99.90
12720;DHT22;6424;48.520;11.228;2023-04-25T15:31:05;8.60;99.90
12720;DHT22;6424;48.520;11.228;2023-04-25T15:33:46;8.50;99.90
12720;DHT22;6424;48.520;11.228;2023-04-25T15:36:27;8.60;99.90
12720;DHT22;6424;48.520;11.228;2023-04-25T15:39:08;8.70;99.90
12720;DHT22;6424;48.520;11.228;2023-04-25T15:41:49;8.60;99.90
12720;DHT22;6424;48.520;11.228;2023-04-25T15:44:14;8.60;99.90
12720;DHT22;6424;48.520;11.228;2023-04-25T15:46:55;8.60;99.90
12720;DHT22;6424;48.520;11.228;2023-04-25T15:49:22;8.60;99.90
12720;DHT22;6424;48.520;11.228;2023-04-25T15:52:03;8.70;99.90
12720;DHT22;6424;48.520;11.228;2023-04-25T15:54:43;8.60;99.90
12720;DHT22;6424;48.520;11.228;2023-04-25T15:57:24;8.60;99.90
12720;DHT22;6424;48.520;11.228;2023-04-25T16:00:06;8.70;99.90
12720;DHT22;6424;48.520;11.228;2023-04-25T16:02:50;8.70;99.90
12720;DHT22;6424;48.520;11.228;2023-04-25T16:05:32;8.70;99.90
12720;DHT22;6424;48.520;11.228;2023-04-25T16:08:12;8.80;99.90
12720;DHT22;6424;48.520;11.228;2023-04-25T16:10:54;8.80;99.90
12720;DHT22;6424;48.520;11.228;2023-04-25T16:13:34;8.80;99.90
12720;DHT22;6424;48.520;11.228;2023-04-25T16:16:15;8.70;99.90
12720;DHT22;6424;48.520;11.228;2023-04-25T16:18:56;8.60;99.90
12720;DHT22;6424;48.520;11.228;2023-04-25T16:21:37;8.50;99.90
12720;DHT22;6424;48.520;11.228;2023-04-25T16:24:18;8.40;99.90
12720;DHT22;6424;48.520;11.228;2023-04-25T16:26:58;8.40;99.90
12720;DHT22;6424;48.520;11.228;2023-04-25T16:29:40;8.30;99.90
12720;DHT22;6424;48.520;11.228;2023-04-25T16:32:05;8.20;99.90
12720;DHT22;6424;48.520;11.228;2023-04-25T16:34:47;8.10;99.90
12720;DHT22;6424;48.520;11.228;2023-04-25T16:37:27;7.90;99.90
12720;DHT22;6424;48.520;11.228;2023-04-25T16:40:08;7.60;99.90
12720;DHT22;6424;48.520;11.228;2023-04-25T16:42:49;7.40;99.90
12720;DHT22;6424;48.520;11.228;2023-04-25T16:45:30;7.30;99.90
12720;DHT22;6424;48.520;11.228;2023-04-25T16:48:11;7.30;99.90
12720;DHT22;6424;48.520;11.228;2023-04-25T17:24:28;7.40;99.90
12720;DHT22;6424;48.520;11.228;2023-04-25T17:27:09;7.50;99.90
12720;DHT22;6424;48.520;11.228;2023-04-25T17:29:50;7.50;99.90
12720;DHT22;6424;48.520;11.228;2023-04-25T17:32:31;7.50;99.90
12720;DHT22;6424;48.520;11.228;2023-04-25T17:35:12;7.40;99.90
12720;DHT22;6424;48.520;11.228;2023-04-25T17:37:53;7.50;99.90
12720;DHT22;6424;48.520;11.228;2023-04-25T17:40:34;7.40;99.90
12720;DHT22;6424;48.520;11.228;2023-04-25T17:43:14;7.50;99.90
12720;DHT22;6424;48.520;11.228;2023-04-25T17:45:55;7.40;99.90
12720;DHT22;6424;48.520;11.228;2023-04-25T17:48:36;7.40;99.90